createdAt,value
2022-12-07T00:04:06.295Z,21.83
2022-12-07T00:09:16.616Z,27.47
2022-12-07T00:14:32.063Z,25.20
2022-12-07T00:19:41.210Z,26.50
2022-12-07T00:24:55.867Z,25.23
2022-12-07T00:30:05.100Z,28.30
2022-12-07T00:35:09.192Z,27.00
2022-12-07T00:40:20.385Z,29.60
2022-12-07T00:58:22.572Z,25.57
2022-12-07T01:08:58.714Z,34.10
2022-12-07T01:14:08.187Z,27.23
2022-12-07T01:19:16.298Z,32.50
2022-12-07T01:24:22.424Z,24.87
2022-12-07T01:29:38.030Z,29.83
2022-12-07T01:34:52.730Z,30.17
2022-12-07T01:39:58.957Z,26.80
2022-12-07T01:45:53.272Z,28.53
2022-12-07T01:51:06.977Z,25.47
2022-12-07T01:56:12.082Z,27.33
2022-12-07T02:01:14.966Z,26.47
2022-12-07T02:06:22.163Z,26.93
2022-12-07T02:11:24.296Z,27.97
2022-12-07T02:16:35.059Z,29.97
2022-12-07T02:22:33.948Z,29.10
2022-12-07T02:27:51.704Z,30.77
2022-12-07T02:33:10.718Z,22.73
2022-12-07T02:38:18.615Z,24.07
2022-12-07T02:43:23.842Z,25.63
2022-12-07T02:48:27.565Z,27.77
2022-12-07T02:53:33.289Z,36.67
2022-12-07T02:59:08.525Z,30.27
2022-12-07T03:04:42.615Z,27.90
2022-12-07T03:09:47.534Z,35.20
2022-12-07T03:15:07.497Z,31.47
2022-12-07T03:20:14.056Z,26.20
2022-12-07T03:25:18.194Z,27.77
2022-12-07T03:30:43.321Z,34.90
2022-12-07T03:36:10.077Z,25.03
2022-12-07T03:41:29.858Z,31.27
2022-12-07T03:46:45.439Z,30.17
2022-12-07T03:52:08.584Z,27.47
2022-12-07T03:57:11.701Z,31.90
2022-12-07T04:02:16.146Z,30.03
2022-12-07T04:07:18.401Z,28.77
2022-12-07T04:12:20.449Z,28.73
2022-12-07T04:17:22.402Z,29.27
2022-12-07T04:22:24.422Z,31.80
2022-12-07T04:27:26.431Z,35.97
2022-12-07T04:32:28.485Z,29.73
2022-12-07T04:37:30.539Z,31.47
2022-12-07T04:42:32.504Z,39.70
2022-12-07T04:47:34.488Z,35.00
2022-12-07T04:52:36.683Z,41.27
2022-12-07T04:57:39.031Z,27.50
2022-12-07T05:02:40.959Z,29.10
2022-12-07T05:07:43.623Z,28.70
2022-12-07T05:12:46.804Z,31.17
2022-12-07T05:17:48.947Z,30.63
2022-12-07T05:22:50.858Z,29.77
2022-12-07T05:27:52.844Z,33.63
2022-12-07T05:32:54.880Z,40.13
2022-12-07T05:37:58.326Z,41.73
2022-12-07T05:43:04.486Z,38.80
2022-12-07T05:48:07.282Z,40.90
2022-12-07T05:53:09.291Z,32.83
2022-12-07T05:58:29.885Z,35.73
2022-12-07T06:03:31.890Z,40.53
2022-12-07T06:08:33.972Z,32.93
2022-12-07T06:13:36.334Z,30.00
2022-12-07T06:18:38.518Z,33.80
2022-12-07T06:23:41.036Z,31.43
2022-12-07T06:28:43.593Z,35.97
2022-12-07T06:33:45.670Z,31.20
2022-12-07T06:38:47.857Z,40.70
2022-12-07T06:43:55.569Z,32.10
2022-12-07T06:48:58.249Z,34.73
2022-12-07T06:54:00.405Z,34.17
2022-12-07T06:59:03.433Z,36.77
2022-12-07T07:04:05.741Z,36.63
2022-12-07T07:09:07.773Z,41.00
2022-12-07T07:14:10.169Z,31.17
2022-12-07T07:19:12.199Z,35.43
2022-12-07T07:24:14.229Z,36.00
2022-12-07T07:29:16.230Z,28.70
2022-12-07T07:34:18.286Z,34.60
2022-12-07T07:39:20.371Z,32.93
2022-12-07T07:44:22.885Z,29.60
2022-12-07T07:49:24.875Z,33.23
2022-12-07T07:54:28.090Z,31.97
2022-12-07T07:59:50.549Z,27.77
2022-12-07T08:05:08.878Z,30.00
2022-12-07T08:10:15.380Z,30.20
2022-12-07T08:15:19.205Z,25.93
2022-12-07T08:20:23.732Z,33.60
2022-12-07T08:25:29.137Z,32.87
2022-12-07T08:30:32.501Z,29.10
2022-12-07T08:41:01.091Z,24.17
2022-12-07T08:46:51.454Z,32.43
2022-12-07T08:51:54.717Z,32.60
2022-12-07T08:57:02.853Z,33.40
2022-12-07T09:02:07.347Z,35.60
2022-12-07T09:07:16.826Z,37.60
2022-12-07T09:18:29.919Z,25.17
2022-12-07T09:23:35.995Z,24.47
2022-12-07T09:28:39.817Z,26.10
2022-12-07T09:34:05.148Z,26.90
2022-12-07T09:39:08.664Z,30.10
2022-12-07T09:44:24.781Z,21.77
2022-12-07T09:49:39.148Z,30.90
2022-12-07T10:14:44.158Z,23.07
2022-12-07T10:20:18.011Z,25.30
2022-12-07T10:31:30.239Z,29.03
2022-12-07T10:42:38.030Z,18.50
2022-12-07T10:48:52.637Z,23.23
2022-12-07T10:54:10.573Z,17.90
2022-12-07T10:59:35.711Z,13.37
2022-12-07T11:05:16.869Z,18.13
2022-12-07T11:10:44.529Z,19.17
2022-12-07T11:16:41.522Z,16.20
2022-12-07T11:22:05.898Z,17.17
2022-12-07T11:32:53.466Z,13.17
2022-12-07T11:38:11.713Z,14.90
2022-12-07T11:49:39.335Z,11.63
2022-12-07T11:55:25.433Z,16.37
2022-12-07T12:00:35.682Z,11.47
2022-12-07T12:05:47.927Z,17.60
2022-12-07T12:11:16.801Z,12.57
2022-12-07T12:16:30.390Z,11.30
2022-12-07T12:21:33.625Z,12.17
2022-12-07T12:26:50.530Z,11.23
2022-12-07T12:32:16.751Z,11.80
2022-12-07T12:37:34.194Z,9.50
2022-12-07T12:42:48.451Z,13.73
2022-12-07T12:48:22.172Z,14.43
2022-12-07T12:53:28.672Z,9.23
2022-12-07T12:58:38.039Z,9.93
2022-12-07T13:03:52.762Z,8.60
2022-12-07T13:08:59.063Z,7.80
2022-12-07T13:14:41.656Z,6.37
2022-12-07T13:19:45.166Z,8.60
2022-12-07T13:31:16.606Z,12.13
2022-12-07T13:49:19.067Z,10.27
2022-12-07T13:54:22.647Z,5.83
2022-12-07T13:59:27.954Z,10.97
2022-12-07T14:10:00.817Z,14.17
2022-12-07T14:15:04.685Z,12.17
2022-12-07T14:20:55.912Z,12.53
2022-12-07T14:26:30.843Z,13.67
2022-12-07T14:38:26.842Z,10.17
2022-12-07T14:59:40.498Z,13.80
2022-12-07T15:04:50.465Z,12.50
2022-12-07T15:09:53.475Z,9.93
2022-12-07T15:15:04.242Z,13.33
2022-12-07T15:20:40.269Z,15.37
2022-12-07T15:25:45.005Z,20.17
2022-12-07T15:31:39.113Z,17.67
2022-12-07T15:37:01.755Z,23.10
2022-12-07T15:42:10.930Z,18.23
2022-12-07T15:47:16.993Z,22.30
2022-12-07T16:04:33.741Z,29.20
2022-12-07T16:15:59.707Z,21.90
2022-12-07T16:21:37.140Z,20.30
2022-12-07T16:26:49.609Z,24.80
2022-12-07T16:32:01.642Z,19.87
2022-12-07T17:01:51.282Z,19.97
2022-12-07T17:06:53.861Z,20.00
2022-12-07T17:12:00.164Z,17.83
2022-12-07T17:17:30.324Z,22.30
2022-12-07T17:23:06.156Z,23.50
2022-12-07T17:33:50.151Z,20.33
2022-12-07T17:39:18.025Z,17.97
2022-12-07T17:44:38.829Z,21.27
2022-12-07T17:49:52.281Z,19.47
2022-12-07T17:55:17.071Z,19.27
2022-12-07T18:00:21.496Z,16.33
2022-12-07T18:05:26.907Z,21.20
2022-12-07T18:15:52.232Z,20.23
2022-12-07T18:20:59.257Z,16.13
2022-12-07T18:26:06.191Z,18.13
2022-12-07T19:10:20.740Z,24.73
2022-12-07T19:15:26.281Z,24.93
2022-12-07T19:20:36.059Z,21.60
2022-12-07T19:25:44.593Z,20.10
2022-12-07T19:30:56.078Z,17.53
2022-12-07T19:36:24.469Z,17.10
2022-12-07T19:41:40.006Z,25.67
2022-12-07T19:47:09.944Z,20.80
2022-12-07T19:52:19.326Z,18.27
2022-12-07T20:02:59.238Z,18.77
2022-12-07T20:08:01.782Z,25.60
2022-12-07T20:13:34.765Z,70.00
2022-12-07T20:18:37.178Z,42.57
2022-12-07T20:23:42.617Z,17.70
2022-12-07T20:28:47.508Z,16.00
2022-12-07T20:33:50.075Z,23.10
2022-12-07T20:38:53.475Z,13.33
2022-12-07T20:43:56.995Z,19.20
2022-12-07T20:49:04.913Z,24.33
2022-12-07T20:54:08.841Z,30.13
2022-12-07T20:59:22.714Z,21.20
2022-12-07T21:04:28.315Z,29.67
2022-12-07T21:09:34.749Z,17.93
2022-12-07T21:14:44.546Z,20.30
2022-12-07T21:19:48.975Z,18.63
2022-12-07T21:24:52.193Z,21.67
2022-12-07T21:29:55.380Z,22.23
2022-12-07T21:35:02.418Z,18.83
2022-12-07T21:40:06.143Z,25.00
2022-12-07T21:45:13.521Z,18.30
2022-12-07T21:50:19.856Z,25.07
2022-12-07T21:55:23.002Z,22.27
2022-12-07T22:00:42.775Z,25.77
2022-12-07T22:05:45.987Z,25.03
2022-12-07T22:10:51.475Z,23.43
2022-12-07T22:15:57.454Z,21.20
2022-12-07T22:21:01.178Z,20.70
2022-12-07T22:26:08.962Z,20.80
2022-12-07T22:31:15.361Z,23.53
2022-12-07T22:36:19.817Z,19.37
2022-12-07T22:41:31.301Z,25.83
2022-12-07T22:46:34.293Z,23.20
2022-12-07T22:51:40.597Z,21.60
2022-12-07T22:56:45.133Z,16.10
2022-12-07T23:01:47.904Z,21.70
2022-12-07T23:06:51.034Z,21.90
2022-12-07T23:12:14.874Z,14.30
2022-12-07T23:17:19.056Z,17.03
2022-12-07T23:22:22.101Z,22.43
2022-12-07T23:38:06.108Z,15.47
2022-12-07T23:43:16.053Z,13.20
2022-12-07T23:48:20.285Z,13.87
2022-12-07T23:53:23.941Z,13.80
